Avioradar koristi kolačiće da bi Vam omogućio jednostavnije i ugodnije korištenje stranice. 

AVIORADAR - Hrvatski zrakoplovni portal

FOTO: Srušio se zrakoplov Cessna 182L Skylane u Dubrovniku - ZL poslala priopćenje

Nenad Sredojević.

f_800_450_16119285_00_images_Dbv_Dbv-stajanka.jpg

Prema trenutnim informacijama zračna luka Dubrovnik je trenutno zatvorena za sav promet.

AIN: Nesreća zrakoplova tipa Cessna 182 u Dubrovniku - priopćenje

Kako Avioradar doznaje došlo je do pada manjeg zrakoplova (Cessna 182L Skylane reg.OE-DDU) prilikom slijetanja na uzletno-sletnu stazu USS12 u 16:36 po lokalnom vremenu. 

Prema posljednjim informacijama putnici i pilot su preživjeli pad ali je jedna osoba teže ozlijeđena. U zrakoplovu su bile tri osobe.

- UPDATE: Zračna luka je u 17:10 otvorena za sav promet. 


Neslužbene informacije govore da je uzrok nesreće vjetar koji je u trenutku pada imao neobične promjene u smjeru i snazi. 

METAR COR LDDU 251500Z VRB02KT 9999 -RA FEW045 24/17 Q1008 RETSRA TEMPO VRB15KT 4000 -TSRA FEW040CB =
METAR LDDU 251430Z 31004KT 250V010 9999 FEW045 28/18 Q1008 NOSIG =

Zrakoplov se srušio jugoistočno od praga staze 12 a u Dubrovnik je stigao iz Graza.

Mjesto pada:
f_800_450_16119285_00_images_Dbv_mjesto_pada2.jpg

Zračna luka Dubrovnik poslala je priopćenje koje prenosimo u cijelosti: 

"Zrakoplov tipa C182 (Cessna 182) registarske oznake OE-DDU na letu iz Graza za Dubrovnik prigodom slijetanja je doživio ozbiljnu nezgodu, tako da je sletio južno izvan uzletno-sletne staze i staze za vožnju.

Do događaja je došlo oko 16:37. U najbržem mogućem roku intervenirale su spasilačko-vatrogasna služba Zračne luke Dubrovnik i timovi hitne medicinske pomoći.U zrakoplovu su bile tri osobe koje su zbrinute od strane hitne medicinske pomoći i zaputili se prema Općoj bolnici Dubrovnik.Zračna luka Dubrovnik je bila privremeno kratko zatvorena zbog događaja, međutim nije bilo značajnijih poremećaja u prometu.

Nadležna državna tijela za istraživanje nesreća zrakoplova su obaviještena i nastavit će s istraživanjem ove ozbiljne nezgode." -stoji u priopćenju.


Prema informacijama iz Ministarstva prometa, Agencija za istraživanje zrakoplovnih nesreća će ujutro izaći na teren. 

Video: Dubrovniknet

Fotografija srušenog zrakoplova (za punu rezoluciju kliknite na fotografiju): 
Foto @ Avioradar
f_800_450_16119285_00_images_Dbv_pad1.jpg